Ada, MI (49301)

2:04 AM EDT on August 30, 2016 (GMT -0400)
Conservation Woods, Ada | | Change Station

Elev 826 ft 42.99 °N, 85.45 °W | Updated 6 minutes ago

Clear
Clear
65.3 °F
Feels Like 65.3 °F
N
0.0
Wind Variable Wind from SE
Gusts 0.0 mph

Today
High -- | Low -- °F
--% Chance of Precip.
Yesterday
High -- | Low -- °F
Precip. -- in
Pressure 30.18 in
Visibility 10.0 miles
Clouds Clear
Dew Point 64 °F
Humidity 95%
Rainfall 0.00 in
Snow Depth Not available.
7:04 AM 8:19 PM
Waning Crescent, 5% visible
METAR KGRR 300553Z AUTO 00000KT 10SM CLR 21/19 A3019 RMK AO2 SLP220 60000 T02060189 10261 20206 50000
Pressure 30.18 in
Visibility 10.0 miles
Clouds Clear
Dew Point 64 °F
Humidity 95%
Rainfall 0.00 in
Snow Depth Not available.
7:04 AM 8:19 PM
Waning Crescent, 5% visible
METAR KGRR 300553Z AUTO 00000KT 10SM CLR 21/19 A3019 RMK AO2 SLP220 60000 T02060189 10261 20206 50000

10-Day Weather Forecast

Almanac

Astronomy

Aug. 30, 2016 Rise Set
Actual Time
Civil Twilight
Nautical Twilight
Astronomical Twilight
Moon
Length of Visible Light
Length of Day
Tomorrow will be .
, % of the Moon is Illuminated

Today's Extremes

State Highs State Lows

Community

WunderPhotos

Upload Photos

1,935,794 photos uploaded!

WunderBlog® & News

Nearby

Air Quality

  Air Quality AQ Index Pollutant
Not available.

Snow Depth

Station Depth Elevation

Earthquake Activity

City Distance Mag. Time & Date
Minimum magnitude displayed is 2.5.

Coastal Water Temperatures

Place Temperature

Stations

Nearby Weather Stations

Station Location Temp. Windchill Dew Point Humidity Wind Precip. Elev Updated Type
                   

Watches & Warnings

There are currently no watches in effect.